createdAt,value
2023-04-03T00:01:24.394Z,82.45
2023-04-03T00:03:53.718Z,84.94
2023-04-03T00:06:22.148Z,85.47
2023-04-03T00:08:51.358Z,86.78
2023-04-03T00:11:20.982Z,87.85
2023-04-03T00:13:49.379Z,86.92
2023-04-03T00:16:18.118Z,85.98
2023-04-03T00:18:46.769Z,84.14
2023-04-03T00:21:16.575Z,85.22
2023-04-03T00:23:45.095Z,83.65
2023-04-03T00:26:13.484Z,86.01
2023-04-03T00:28:43.619Z,85.61
2023-04-03T00:31:12.090Z,85.43
2023-04-03T00:33:40.458Z,84.08
2023-04-03T00:36:11.440Z,84.52
2023-04-03T00:38:40.030Z,84.47
2023-04-03T00:41:09.079Z,83.88
2023-04-03T00:43:37.701Z,84.29
2023-04-03T00:46:06.360Z,84.25
2023-04-03T00:48:42.928Z,84.91
2023-04-03T00:51:20.130Z,85.15
2023-04-03T00:53:56.934Z,83.38
2023-04-03T00:56:29.244Z,84.40
2023-04-03T00:59:07.726Z,83.86
2023-04-03T01:01:37.076Z,84.00
2023-04-03T01:04:07.881Z,84.68
2023-04-03T01:06:39.982Z,83.85
2023-04-03T01:09:08.847Z,84.10
2023-04-03T01:11:37.247Z,83.38
2023-04-03T01:14:07.920Z,83.24
2023-04-03T01:16:36.702Z,82.40
2023-04-03T01:19:07.755Z,81.65
2023-04-03T01:22:14.794Z,82.71
2023-04-03T01:24:43.402Z,78.49
2023-04-03T01:27:13.908Z,78.59
2023-04-03T01:29:43.474Z,78.20
2023-04-03T01:32:11.926Z,78.71
2023-04-03T01:34:40.268Z,78.49
2023-04-03T01:37:08.681Z,78.80
2023-04-03T01:39:37.244Z,79.03
2023-04-03T01:42:06.348Z,78.52
2023-04-03T01:44:34.838Z,78.11
2023-04-03T01:47:03.174Z,76.16
2023-04-03T01:49:31.507Z,74.89
2023-04-03T01:51:59.879Z,74.06
2023-04-03T01:54:28.272Z,74.48
2023-04-03T01:56:56.661Z,74.61
2023-04-03T01:59:25.107Z,75.07
2023-04-03T02:01:53.457Z,75.15
2023-04-03T02:04:21.950Z,74.32
2023-04-03T02:06:50.647Z,75.23
2023-04-03T02:09:19.084Z,72.42
2023-04-03T02:11:47.495Z,72.43
2023-04-03T02:14:15.958Z,72.69
2023-04-03T02:16:44.396Z,73.73
2023-04-03T02:19:12.854Z,71.78
2023-04-03T02:21:41.264Z,73.41
2023-04-03T02:24:09.845Z,71.60
2023-04-03T02:26:38.237Z,70.98
2023-04-03T02:29:06.904Z,71.41
2023-04-03T02:31:35.339Z,71.40
2023-04-03T02:34:03.766Z,71.18
2023-04-03T02:36:33.029Z,71.01
2023-04-03T02:39:01.521Z,71.91
2023-04-03T02:41:35.591Z,72.29
2023-04-03T02:44:05.341Z,71.04
2023-04-03T02:46:34.157Z,71.68
2023-04-03T02:49:02.524Z,72.82
2023-04-03T02:51:30.954Z,71.79
2023-04-03T02:53:59.344Z,71.66
2023-04-03T02:56:28.776Z,71.81
2023-04-03T02:58:57.273Z,72.40
2023-04-03T03:01:25.694Z,71.23
2023-04-03T03:03:54.057Z,71.45
2023-04-03T03:06:22.397Z,71.61
2023-04-03T03:08:50.765Z,70.43
2023-04-03T03:11:19.183Z,70.45
2023-04-03T03:13:47.633Z,71.43
2023-04-03T03:16:16.443Z,71.02
2023-04-03T03:18:44.906Z,71.10
2023-04-03T03:21:13.499Z,70.89
2023-04-03T03:23:42.140Z,70.95
2023-04-03T03:26:13.387Z,70.96
2023-04-03T03:28:42.731Z,71.11
2023-04-03T03:31:12.175Z,69.13
2023-04-03T03:33:40.618Z,69.73
2023-04-03T03:36:09.422Z,69.13
2023-04-03T03:38:37.843Z,69.48
2023-04-03T03:41:06.298Z,68.38
2023-04-03T03:43:34.933Z,66.11
2023-04-03T03:46:03.304Z,67.97
2023-04-03T03:48:31.796Z,68.38
2023-04-03T03:51:00.167Z,67.75
2023-04-03T03:53:28.551Z,68.82
2023-04-03T03:55:57.082Z,67.85
2023-04-03T03:58:25.518Z,66.80
2023-04-03T04:00:54.054Z,67.61
2023-04-03T04:03:23.097Z,67.37
2023-04-03T04:05:51.565Z,66.82
2023-04-03T04:08:20.013Z,65.13
2023-04-03T04:10:48.543Z,64.62
2023-04-03T04:13:17.141Z,65.56
2023-04-03T04:15:45.957Z,63.88
2023-04-03T04:18:14.514Z,65.12
2023-04-03T04:20:42.896Z,65.43
2023-04-03T04:23:11.428Z,63.63
2023-04-03T04:25:39.812Z,63.78
2023-04-03T04:28:08.494Z,65.07
2023-04-03T04:30:36.946Z,63.68
2023-04-03T04:33:05.895Z,64.93
2023-04-03T04:35:34.541Z,62.12
2023-04-03T04:38:03.571Z,61.56
2023-04-03T04:40:32.059Z,62.08
2023-04-03T04:43:00.441Z,61.29
2023-04-03T04:45:28.869Z,62.19
2023-04-03T04:48:00.421Z,61.57
2023-04-03T04:50:28.892Z,60.43
2023-04-03T04:52:57.259Z,61.21
2023-04-03T04:55:25.643Z,59.96
2023-04-03T04:57:54.074Z,61.34
2023-04-03T05:00:22.786Z,60.29
2023-04-03T05:02:51.253Z,61.38
2023-04-03T05:05:19.666Z,59.81
2023-04-03T05:07:48.077Z,58.93
2023-04-03T05:10:16.443Z,61.09
2023-04-03T05:12:44.836Z,58.86
2023-04-03T05:15:13.408Z,59.64
2023-04-03T05:17:41.909Z,59.87
2023-04-03T05:20:10.667Z,58.37
2023-04-03T05:22:39.327Z,57.40
2023-04-03T05:25:08.454Z,60.12
2023-04-03T05:27:36.944Z,56.53
2023-04-03T05:30:06.314Z,59.04
2023-04-03T05:32:35.482Z,59.20
2023-04-03T05:35:04.202Z,56.71
2023-04-03T05:37:32.581Z,55.64
2023-04-03T05:40:01.476Z,58.71
2023-04-03T05:42:29.935Z,58.12
2023-04-03T05:44:58.423Z,56.75
2023-04-03T05:47:27.004Z,55.34
2023-04-03T05:49:55.458Z,52.69
2023-04-03T05:52:32.937Z,52.16
2023-04-03T05:55:01.297Z,54.58
2023-04-03T05:57:29.918Z,55.04
2023-04-03T05:59:58.293Z,57.16
2023-04-03T06:02:28.102Z,56.69
2023-04-03T06:04:56.750Z,55.01
2023-04-03T06:07:30.019Z,54.92
2023-04-03T06:09:59.672Z,56.14
2023-04-03T06:12:30.764Z,54.20
2023-04-03T06:14:59.260Z,55.34
2023-04-03T06:17:29.093Z,56.49
2023-04-03T06:19:57.843Z,52.66
2023-04-03T06:22:27.612Z,56.47
2023-04-03T06:24:56.717Z,57.08
2023-04-03T06:27:25.583Z,51.78
2023-04-03T06:29:53.928Z,54.41
2023-04-03T06:32:22.306Z,50.08
2023-04-03T06:34:50.648Z,53.62
2023-04-03T06:37:24.873Z,52.33
2023-04-03T06:39:53.191Z,53.88
2023-04-03T06:42:21.604Z,54.60
2023-04-03T06:44:50.208Z,49.57
2023-04-03T06:47:19.566Z,53.44
2023-04-03T06:49:48.149Z,51.96
2023-04-03T06:52:16.544Z,52.56
2023-04-03T06:54:44.936Z,52.81
2023-04-03T06:57:13.322Z,53.88
2023-04-03T06:59:42.101Z,50.83
2023-04-03T07:02:14.714Z,50.77
2023-04-03T07:04:43.131Z,51.28
2023-04-03T07:07:12.192Z,52.08
2023-04-03T07:09:40.523Z,52.74
2023-04-03T07:12:09.207Z,51.39
2023-04-03T07:14:37.607Z,52.39
2023-04-03T07:17:05.971Z,52.22
2023-04-03T07:19:34.366Z,50.83
2023-04-03T07:22:02.717Z,50.94
2023-04-03T07:24:31.056Z,52.62
2023-04-03T07:26:59.444Z,50.58
2023-04-03T07:29:27.852Z,50.10
2023-04-03T07:31:57.342Z,51.83
2023-04-03T07:34:26.083Z,51.53
2023-04-03T07:36:54.788Z,51.09
2023-04-03T07:39:23.205Z,50.50
2023-04-03T07:41:51.775Z,50.99
2023-04-03T07:44:20.617Z,50.71
2023-04-03T07:46:48.998Z,51.30
2023-04-03T07:49:18.610Z,50.11
2023-04-03T07:51:48.570Z,50.64
2023-04-03T07:54:17.418Z,51.12
2023-04-03T07:56:45.849Z,52.04
2023-04-03T07:59:14.787Z,49.87
2023-04-03T08:01:44.419Z,50.88
2023-04-03T08:04:13.044Z,54.44
2023-04-03T08:06:47.034Z,51.69
2023-04-03T08:09:17.928Z,51.06
2023-04-03T08:11:46.988Z,53.34
2023-04-03T08:14:19.851Z,54.54
2023-04-03T08:16:49.685Z,54.11
2023-04-03T08:19:26.243Z,54.57
2023-04-03T08:21:57.126Z,52.31
2023-04-03T08:24:25.726Z,55.41
2023-04-03T08:26:54.103Z,54.69
2023-04-03T08:29:23.173Z,54.59
2023-04-03T08:31:52.284Z,55.47
2023-04-03T08:34:21.361Z,50.19
2023-04-03T08:36:50.216Z,49.54
2023-04-03T08:39:18.661Z,50.38
2023-04-03T08:41:49.630Z,53.25
2023-04-03T08:44:30.139Z,52.19
2023-04-03T08:47:19.776Z,50.70
2023-04-03T08:49:59.574Z,49.83
2023-04-03T08:52:54.788Z,49.79
2023-04-03T08:55:29.300Z,49.52
2023-04-03T08:58:07.757Z,49.14
2023-04-03T09:00:58.535Z,51.52
2023-04-03T09:03:27.399Z,51.68
2023-04-03T09:06:13.417Z,52.66
2023-04-03T09:08:50.332Z,51.02
2023-04-03T09:11:39.931Z,53.05
2023-04-03T09:14:36.187Z,55.23
2023-04-03T09:17:20.091Z,54.41
2023-04-03T09:20:00.682Z,53.77
2023-04-03T09:22:36.501Z,54.97
2023-04-03T09:25:23.939Z,56.67
2023-04-03T09:27:53.538Z,56.72
2023-04-03T09:30:27.953Z,56.53
2023-04-03T09:33:01.486Z,57.51
2023-04-03T09:35:44.958Z,57.26
2023-04-03T09:38:23.052Z,54.82
2023-04-03T09:41:09.439Z,54.67
2023-04-03T09:43:40.768Z,54.81
2023-04-03T09:46:24.312Z,56.26
2023-04-03T09:51:35.507Z,57.33
2023-04-03T09:54:29.146Z,61.27
2023-04-03T09:57:00.319Z,59.91
2023-04-03T09:59:28.749Z,60.82
2023-04-03T10:02:04.643Z,61.29
2023-04-03T10:04:43.690Z,63.13
2023-04-03T10:07:40.191Z,64.86
2023-04-03T10:10:24.719Z,64.57
2023-04-03T10:13:09.315Z,64.57
2023-04-03T10:15:47.495Z,66.14
2023-04-03T10:18:41.225Z,66.37
2023-04-03T10:21:27.211Z,65.30
2023-04-03T10:24:13.170Z,64.76
2023-04-03T10:27:02.234Z,65.53
2023-04-03T10:29:36.035Z,65.15
2023-04-03T10:32:04.326Z,65.39
2023-04-03T10:34:43.517Z,68.23
2023-04-03T10:37:22.433Z,65.89
2023-04-03T10:40:08.965Z,65.23
2023-04-03T10:42:40.129Z,67.82
2023-04-03T10:45:11.261Z,65.90
2023-04-03T10:47:45.609Z,66.27
2023-04-03T10:50:34.204Z,67.68
2023-04-03T10:53:21.592Z,67.44
2023-04-03T10:56:14.070Z,68.29
2023-04-03T10:58:47.222Z,68.42
2023-04-03T11:01:21.232Z,71.15
2023-04-03T11:03:55.338Z,70.32
2023-04-03T11:06:27.756Z,71.03
2023-04-03T11:09:03.474Z,72.16
2023-04-03T11:11:42.091Z,72.09
2023-04-03T11:14:28.617Z,72.12
2023-04-03T11:17:13.720Z,71.80
2023-04-03T11:19:54.014Z,71.61
2023-04-03T11:22:30.201Z,72.31
2023-04-03T11:25:08.191Z,73.15
2023-04-03T11:27:58.688Z,73.80
2023-04-03T11:30:37.067Z,74.48
2023-04-03T11:33:23.961Z,74.30
2023-04-03T11:35:58.894Z,74.32
2023-04-03T11:38:38.246Z,74.58
2023-04-03T11:41:09.092Z,75.66
2023-04-03T11:43:59.170Z,76.14
2023-04-03T11:46:56.497Z,76.30
2023-04-03T11:50:02.989Z,76.91
2023-04-03T11:52:45.088Z,76.84
2023-04-03T11:55:25.332Z,77.26
2023-04-03T11:58:02.967Z,78.31
2023-04-03T12:00:48.425Z,78.20
2023-04-03T12:03:28.947Z,78.32
2023-04-03T12:06:02.139Z,78.74
2023-04-03T12:08:34.612Z,78.94
2023-04-03T12:11:14.932Z,77.57
2023-04-03T12:13:52.567Z,77.07
2023-04-03T12:16:46.655Z,77.76
2023-04-03T12:19:22.276Z,80.10
2023-04-03T12:22:00.172Z,79.83
2023-04-03T12:24:33.565Z,80.07
2023-04-03T12:27:20.400Z,80.01
2023-04-03T12:30:12.827Z,80.05
2023-04-03T12:33:18.608Z,79.89
2023-04-03T12:36:03.738Z,80.62
2023-04-03T12:38:57.490Z,81.34
2023-04-03T12:41:53.483Z,81.43
2023-04-03T12:44:24.940Z,82.07
2023-04-03T12:46:55.401Z,82.27
2023-04-03T12:49:29.504Z,82.37
2023-04-03T12:51:58.012Z,81.90
2023-04-03T12:54:41.764Z,81.80
2023-04-03T12:57:20.278Z,81.80
2023-04-03T12:59:50.248Z,81.48
2023-04-03T13:02:39.416Z,80.81
2023-04-03T13:05:11.903Z,81.71
2023-04-03T13:07:42.691Z,78.67
2023-04-03T13:10:11.043Z,78.04
2023-04-03T13:12:54.992Z,77.42
2023-04-03T13:15:32.211Z,76.00
2023-04-03T13:18:00.666Z,76.09
2023-04-03T13:20:36.421Z,76.34
2023-04-03T13:23:10.705Z,76.69
2023-04-03T13:25:46.026Z,76.26
2023-04-03T13:28:18.059Z,76.38
2023-04-03T13:31:04.983Z,75.00
2023-04-03T13:33:39.810Z,75.65
2023-04-03T13:36:18.625Z,77.59
2023-04-03T13:38:47.416Z,77.31
2023-04-03T13:41:34.053Z,78.38
2023-04-03T13:44:24.373Z,78.85
2023-04-03T13:47:02.756Z,79.91
2023-04-03T13:49:35.922Z,80.49
2023-04-03T13:52:28.635Z,79.52
2023-04-03T13:55:04.226Z,77.99
2023-04-03T13:57:34.729Z,77.69
2023-04-03T14:00:30.055Z,79.63
2023-04-03T14:02:59.125Z,79.26
2023-04-03T14:05:28.532Z,79.38
2023-04-03T14:07:58.396Z,79.75
2023-04-03T14:10:27.029Z,80.09
2023-04-03T14:12:55.473Z,80.50
2023-04-03T14:15:30.425Z,79.65
2023-04-03T14:18:00.406Z,80.21
2023-04-03T14:20:30.637Z,80.62
2023-04-03T14:22:59.408Z,80.91
2023-04-03T14:25:28.672Z,80.10
2023-04-03T14:27:57.255Z,81.81
2023-04-03T14:30:34.409Z,82.59
2023-04-03T14:33:03.304Z,82.51
2023-04-03T14:35:31.849Z,82.33
2023-04-03T14:38:00.295Z,80.82
2023-04-03T14:40:29.631Z,79.30
2023-04-03T14:42:59.302Z,80.09
2023-04-03T14:45:28.266Z,81.23
2023-04-03T14:47:58.531Z,81.35
2023-04-03T14:50:29.239Z,82.47
2023-04-03T14:53:00.928Z,82.01
2023-04-03T14:55:29.774Z,81.66
2023-04-03T14:57:58.173Z,79.89
2023-04-03T15:00:26.815Z,78.50
2023-04-03T15:02:55.505Z,77.70
2023-04-03T15:05:23.984Z,79.53
2023-04-03T15:07:58.368Z,81.71
2023-04-03T15:10:31.957Z,82.61
2023-04-03T15:13:00.382Z,83.03
2023-04-03T15:15:31.361Z,83.60
2023-04-03T15:18:00.353Z,83.46
2023-04-03T15:20:32.594Z,83.48
2023-04-03T15:23:06.880Z,83.24
2023-04-03T15:25:35.500Z,83.46
2023-04-03T15:28:04.177Z,84.02
2023-04-03T15:30:33.049Z,84.33
2023-04-03T15:33:01.531Z,84.08
2023-04-03T15:35:30.140Z,85.23
2023-04-03T15:37:58.544Z,85.19
2023-04-03T15:40:27.622Z,85.93
2023-04-03T15:42:56.598Z,86.59
2023-04-03T15:45:25.798Z,86.14
2023-04-03T15:47:54.300Z,84.58
2023-04-03T15:50:24.776Z,85.32
2023-04-03T15:52:56.368Z,85.50
2023-04-03T15:55:26.336Z,84.40
2023-04-03T15:57:55.681Z,83.52
2023-04-03T16:00:26.384Z,83.14
2023-04-03T16:02:59.281Z,83.05
2023-04-03T16:05:28.217Z,83.33
2023-04-03T16:07:57.190Z,82.90
2023-04-03T16:10:25.718Z,82.69
2023-04-03T16:12:54.686Z,83.40
2023-04-03T16:15:23.408Z,83.27
2023-04-03T16:17:52.466Z,83.08
2023-04-03T16:20:22.213Z,82.90
2023-04-03T16:22:52.056Z,83.41
2023-04-03T16:25:20.741Z,83.19
2023-04-03T16:27:49.141Z,83.14
2023-04-03T16:30:17.605Z,83.33
2023-04-03T16:32:46.383Z,83.44
2023-04-03T16:35:14.969Z,83.94
2023-04-03T16:37:43.361Z,84.01
2023-04-03T16:40:12.096Z,83.67
2023-04-03T16:42:40.832Z,83.44
2023-04-03T16:45:10.058Z,83.03
2023-04-03T16:47:38.525Z,83.73
2023-04-03T16:50:07.610Z,83.38
2023-04-03T16:52:36.310Z,82.58
2023-04-03T16:55:04.934Z,82.65
2023-04-03T16:57:33.365Z,83.97
2023-04-03T17:00:01.923Z,84.55
2023-04-03T17:02:31.171Z,84.49
2023-04-03T17:04:59.653Z,83.83
2023-04-03T17:07:28.609Z,84.62
2023-04-03T17:09:57.069Z,86.02
2023-04-03T17:12:26.019Z,86.15
2023-04-03T17:14:54.446Z,86.75
2023-04-03T17:17:27.170Z,87.27
2023-04-03T17:19:57.113Z,87.42
2023-04-03T17:22:26.151Z,87.34
2023-04-03T17:24:54.857Z,86.22
2023-04-03T17:27:23.785Z,84.90
2023-04-03T17:29:52.267Z,85.82
2023-04-03T17:32:20.717Z,85.37
2023-04-03T17:34:49.374Z,84.45
2023-04-03T17:37:18.022Z,83.76
2023-04-03T17:39:47.900Z,83.35
2023-04-03T17:42:17.101Z,83.34
2023-04-03T17:44:45.587Z,82.74
2023-04-03T17:47:14.045Z,82.32
2023-04-03T17:49:42.675Z,82.48
2023-04-03T17:52:11.573Z,81.80
2023-04-03T17:54:40.416Z,82.13
2023-04-03T17:57:09.810Z,82.32
2023-04-03T17:59:39.209Z,81.92
2023-04-03T18:02:07.798Z,82.37
2023-04-03T18:04:36.210Z,82.08
2023-04-03T18:07:08.903Z,82.59
2023-04-03T18:09:38.820Z,82.18
2023-04-03T18:12:10.208Z,83.05
2023-04-03T18:14:40.369Z,83.18
2023-04-03T18:17:09.031Z,82.22
2023-04-03T18:19:37.558Z,82.84
2023-04-03T18:22:10.966Z,83.56
2023-04-03T18:24:39.670Z,83.76
2023-04-03T18:27:14.259Z,83.88
2023-04-03T18:29:45.785Z,84.08
2023-04-03T18:32:17.445Z,83.42
2023-04-03T18:34:45.925Z,83.62
2023-04-03T18:37:16.071Z,84.18
2023-04-03T18:39:44.508Z,84.11
2023-04-03T18:42:16.486Z,84.40
2023-04-03T18:44:48.864Z,85.27
2023-04-03T18:47:17.384Z,86.21
2023-04-03T18:49:46.001Z,86.56
2023-04-03T18:52:14.502Z,87.28
2023-04-03T18:54:43.814Z,87.00
2023-04-03T18:57:12.236Z,87.28
2023-04-03T18:59:40.631Z,86.89
2023-04-03T19:02:10.357Z,86.71
2023-04-03T19:04:38.977Z,86.94
2023-04-03T19:07:07.528Z,86.23
2023-04-03T19:09:36.484Z,86.12
2023-04-03T19:12:05.244Z,86.57
2023-04-03T19:14:33.958Z,86.31
2023-04-03T19:17:03.687Z,86.67
2023-04-03T19:19:32.185Z,86.56
2023-04-03T19:22:00.605Z,86.42
2023-04-03T19:24:29.020Z,86.31
2023-04-03T19:26:57.464Z,86.51
2023-04-03T19:29:25.863Z,86.97
2023-04-03T19:31:54.277Z,86.31
2023-04-03T19:34:23.065Z,86.15
2023-04-03T19:36:53.021Z,86.17
2023-04-03T19:39:21.777Z,86.57
2023-04-03T19:41:50.456Z,86.20
2023-04-03T19:44:18.891Z,86.42
2023-04-03T19:46:50.944Z,85.57
2023-04-03T19:49:20.875Z,85.88
2023-04-03T19:51:49.286Z,86.05
2023-04-03T19:54:17.948Z,86.19
2023-04-03T19:56:46.992Z,86.67
2023-04-03T19:59:15.831Z,86.87
2023-04-03T20:01:44.639Z,86.62
2023-04-03T20:04:13.633Z,86.74
2023-04-03T20:06:42.112Z,86.76
2023-04-03T20:09:10.557Z,87.35
2023-04-03T20:11:41.365Z,88.21
2023-04-03T20:14:09.762Z,87.61
2023-04-03T20:16:38.944Z,88.03
2023-04-03T20:19:08.104Z,87.60
2023-04-03T20:21:37.241Z,87.21
2023-04-03T20:24:10.745Z,88.16
2023-04-03T20:26:44.730Z,88.22
2023-04-03T20:29:15.403Z,88.69
2023-04-03T20:31:43.876Z,89.50
2023-04-03T20:34:12.749Z,89.44
2023-04-03T20:36:41.259Z,90.30
2023-04-03T20:39:10.152Z,90.75
2023-04-03T20:41:40.309Z,90.26
2023-04-03T20:44:08.734Z,90.26
2023-04-03T20:46:51.426Z,89.42
2023-04-03T20:49:22.929Z,89.01
2023-04-03T20:51:52.292Z,89.16
2023-04-03T20:54:21.202Z,88.56
2023-04-03T20:56:50.714Z,89.41
2023-04-03T20:59:19.633Z,88.29
2023-04-03T21:01:48.595Z,87.57
2023-04-03T21:04:31.359Z,87.80
2023-04-03T21:07:39.764Z,87.01
2023-04-03T21:10:45.184Z,87.29
2023-04-03T21:13:50.311Z,87.10
2023-04-03T21:16:18.300Z,86.75
2023-04-03T21:19:03.553Z,86.17
2023-04-03T21:21:32.178Z,86.81
2023-04-03T21:24:02.410Z,86.37
2023-04-03T21:26:30.816Z,85.96
2023-04-03T21:28:59.385Z,86.46
2023-04-03T21:31:54.761Z,86.20
2023-04-03T21:34:27.226Z,86.65
2023-04-03T21:36:58.130Z,86.54
2023-04-03T21:39:26.550Z,86.70
2023-04-03T21:41:55.034Z,87.02
2023-04-03T21:44:24.401Z,86.99
2023-04-03T21:46:55.872Z,87.47
2023-04-03T21:49:26.007Z,87.62
2023-04-03T21:51:56.881Z,87.67
2023-04-03T21:54:26.339Z,88.03
2023-04-03T21:56:54.818Z,87.74
2023-04-03T21:59:24.072Z,88.19
2023-04-03T22:01:52.722Z,87.18
2023-04-03T22:04:21.194Z,87.92
2023-04-03T22:06:49.640Z,88.10
2023-04-03T22:09:18.222Z,88.12
2023-04-03T22:11:46.834Z,88.16
2023-04-03T22:14:15.220Z,87.65
2023-04-03T22:16:47.467Z,86.81
2023-04-03T22:19:16.085Z,86.79
2023-04-03T22:21:44.627Z,85.71
2023-04-03T22:24:13.301Z,85.63
2023-04-03T22:26:45.206Z,85.98
2023-04-03T22:29:18.067Z,86.16
2023-04-03T22:31:46.500Z,85.57
2023-04-03T22:34:15.153Z,85.52
2023-04-03T22:36:44.050Z,85.14
2023-04-03T22:39:13.967Z,84.67
2023-04-03T22:41:43.828Z,84.51
2023-04-03T22:44:13.501Z,83.71
2023-04-03T22:46:42.311Z,84.09
2023-04-03T22:49:10.740Z,83.58
2023-04-03T22:51:39.185Z,83.71
2023-04-03T22:54:07.835Z,83.54
2023-04-03T22:56:36.310Z,83.76
2023-04-03T22:59:05.101Z,83.50
2023-04-03T23:01:33.584Z,83.58
2023-04-03T23:04:02.171Z,84.30
2023-04-03T23:06:30.636Z,84.17
2023-04-03T23:08:59.124Z,85.33
2023-04-03T23:11:28.024Z,84.98
2023-04-03T23:13:56.444Z,85.18
2023-04-03T23:16:24.874Z,85.53
2023-04-03T23:18:53.351Z,85.44
2023-04-03T23:21:22.054Z,85.39
2023-04-03T23:23:50.444Z,86.94
2023-04-03T23:26:19.030Z,87.22
2023-04-03T23:28:47.468Z,87.79
2023-04-03T23:31:15.938Z,87.43
2023-04-03T23:33:45.465Z,87.70
2023-04-03T23:36:14.441Z,87.59
2023-04-03T23:38:43.986Z,88.19
2023-04-03T23:41:12.438Z,88.67
2023-04-03T23:43:42.462Z,89.13
2023-04-03T23:46:11.019Z,89.25
2023-04-03T23:48:39.507Z,88.05
2023-04-03T23:51:08.052Z,87.49
2023-04-03T23:53:36.505Z,87.56
2023-04-03T23:56:10.553Z,87.09
2023-04-03T23:58:39.095Z,87.42
